Time;durP1;ratioP1;P1;durP2;ratioP2;P2;SDS_P1;SDS_P2;PMS_P1;PMS_P2;Temp;Humidity;BMP_temperature;BMP_pressure;BME280_temperature;BME280_humidity;BME280_pressure;Samples;Min_cycle;Max_cycle;Signal;HPM_P1;HPM_P2
2022/06/22 00:01:44;;;;;;;16.48;12.45;;;11.80;99.90;;;;;;5045074;28;20045;-77
2022/06/22 00:04:18;;;;;;;;;;;11.80;99.90;;;;;;5023177;28;20102;-78
2022/06/22 00:06:57;;;;;;;13.68;12.25;;;11.90;99.90;;;;;;5042105;28;20450;-77
2022/06/22 00:09:28;;;;;;;17.75;13.45;;;11.80;99.90;;;;;;5005637;28;20132;-76
2022/06/22 00:11:54;;;;;;;15.30;11.75;;;11.80;99.90;;;;;;5040932;28;20132;-77
2022/06/22 00:14:25;;;;;;;16.45;11.43;;;11.80;99.90;;;;;;5043321;28;20037;-78
2022/06/22 00:16:54;;;;;;;15.93;12.07;;;11.80;99.90;;;;;;5045691;28;20051;-77
2022/06/22 00:19:40;;;;;;;26.42;14.85;;;11.80;99.90;;;;;;4989779;28;20046;-77
2022/06/22 00:22:21;;;;;;;26.05;16.08;;;11.70;99.90;;;;;;5011594;28;20049;-76
2022/06/22 00:24:56;;;;;;;19.13;13.20;;;11.80;99.90;;;;;;5010560;28;20040;-77
2022/06/22 00:27:37;;;;;;;17.63;12.38;;;11.70;99.90;;;;;;5026166;28;20056;-77
2022/06/22 00:30:18;;;;;;;18.63;15.05;;;11.70;99.90;;;;;;5036079;28;20080;-77
2022/06/22 00:33:00;;;;;;;32.33;14.68;;;11.70;99.90;;;;;;5023624;28;20048;-77
2022/06/22 00:35:46;;;;;;;17.63;13.95;;;11.60;99.90;;;;;;5023173;28;20052;-76
2022/06/22 00:38:19;;;;;;;17.35;14.25;;;11.60;99.90;;;;;;5021353;28;20059;-77
2022/06/22 00:40:52;;;;;;;18.27;14.85;;;11.50;99.90;;;;;;5046727;28;20051;-77
2022/06/22 00:43:19;;;;;;;18.67;14.10;;;11.60;99.90;;;;;;5035678;28;20045;-76
2022/06/22 00:45:48;;;;;;;18.65;15.48;;;11.50;99.90;;;;;;5040602;28;20049;-77
2022/06/22 00:48:21;;;;;;;20.90;13.63;;;11.50;99.90;;;;;;5010345;28;20564;-77
2022/06/22 00:50:54;;;;;;;18.98;14.38;;;11.60;99.90;;;;;;5037393;28;20037;-78
2022/06/22 00:53:43;;;;;;;18.92;14.85;;;11.50;99.90;;;;;;5031385;28;20044;-77
2022/06/22 00:56:36;;;;;;;17.30;14.13;;;11.50;99.90;;;;;;5015814;28;20467;-77
2022/06/22 00:59:24;;;;;;;19.35;13.95;;;11.40;99.90;;;;;;5043399;28;20671;-77
2022/06/22 01:02:03;;;;;;;18.73;15.27;;;11.50;99.90;;;;;;5045965;28;20098;-77
2022/06/22 01:04:39;;;;;;;18.77;15.00;;;11.50;99.90;;;;;;5018845;28;20099;-78
2022/06/22 01:07:16;;;;;;;24.55;15.85;;;11.50;99.90;;;;;;5008185;28;20453;-77
2022/06/22 01:09:49;;;;;;;22.33;18.15;;;11.40;99.90;;;;;;5020975;28;20056;-77
2022/06/22 01:12:31;;;;;;;15.10;13.35;;;11.40;99.90;;;;;;5026693;28;20132;-76
2022/06/22 01:15:24;;;;;;;18.40;15.88;;;11.30;99.90;;;;;;5015074;28;20046;-77
2022/06/22 01:18:04;;;;;;;14.27;12.90;;;11.20;99.90;;;;;;5023853;28;20045;-78
2022/06/22 01:20:51;;;;;;;;;;;11.20;99.90;;;;;;4973373;28;20453;-77
2022/06/22 01:23:50;;;;;;;17.60;14.93;;;11.20;99.90;;;;;;5002746;28;20573;-76
2022/06/22 01:26:46;;;;;;;22.65;14.52;;;11.20;99.90;;;;;;5025205;28;20079;-76
2022/06/22 01:29:18;;;;;;;16.30;14.00;;;11.20;99.90;;;;;;5019554;28;20411;-77
2022/06/22 01:32:00;;;;;;;22.92;16.08;;;11.20;99.90;;;;;;5040569;28;20072;-76
2022/06/22 01:34:32;;;;;;;16.38;13.82;;;11.10;99.90;;;;;;5022113;28;20404;-76
2022/06/22 01:37:05;;;;;;;13.63;12.18;;;11.10;99.90;;;;;;4992225;28;20045;-76
2022/06/22 01:39:31;;;;;;;15.80;11.88;;;11.10;99.90;;;;;;5020741;28;20049;-77
2022/06/22 01:42:02;;;;;;;15.05;10.25;;;11.00;99.90;;;;;;5020801;28;20053;-77
2022/06/22 01:44:30;;;;;;;11.50;10.25;;;10.80;99.90;;;;;;5022278;28;20392;-77
2022/06/22 01:47:15;;;;;;;12.80;9.65;;;10.70;99.90;;;;;;5030152;28;20057;-76
2022/06/22 01:49:51;;;;;;;11.40;10.20;;;10.70;99.90;;;;;;5050029;22;20053;-76
2022/06/22 01:52:32;;;;;;;13.98;8.95;;;10.70;99.90;;;;;;5045451;28;20102;-77
2022/06/22 01:55:12;;;;;;;11.25;9.95;;;10.60;99.90;;;;;;5066386;28;20495;-77
2022/06/22 01:57:46;;;;;;;12.13;10.55;;;10.60;99.90;;;;;;5081809;28;20055;-77
2022/06/22 02:00:18;;;;;;;12.18;10.93;;;10.50;99.90;;;;;;5058035;28;20044;-78
2022/06/22 02:02:55;;;;;;;13.07;10.73;;;10.50;99.90;;;;;;5085142;28;20079;-78
2022/06/22 02:05:37;;;;;;;15.88;11.13;;;10.50;99.90;;;;;;5051810;28;20558;-78
2022/06/22 02:08:17;;;;;;;11.05;9.95;;;10.50;99.90;;;;;;5038362;28;20398;-78
2022/06/22 02:10:49;;;;;;;13.10;11.77;;;10.40;99.90;;;;;;5047980;28;20055;-78
2022/06/22 02:13:39;;;;;;;13.60;11.10;;;10.40;99.90;;;;;;5067429;28;20048;-78
2022/06/22 02:16:21;;;;;;;13.07;10.63;;;10.30;99.90;;;;;;5086770;28;20041;-77
2022/06/22 02:18:51;;;;;;;13.18;11.75;;;10.30;99.90;;;;;;5069780;28;20097;-79
2022/06/22 02:21:33;;;;;;;9.15;8.25;;;10.20;99.90;;;;;;5049402;28;20072;-78
2022/06/22 02:24:05;;;;;;;13.10;9.85;;;10.30;99.90;;;;;;5054108;28;20037;-78
2022/06/22 02:26:34;;;;;;;9.55;8.57;;;10.20;99.90;;;;;;5087824;28;20040;-78
2022/06/22 02:29:01;;;;;;;12.57;8.35;;;10.10;99.90;;;;;;5068320;28;20135;-78
2022/06/22 02:31:27;;;;;;;9.32;7.57;;;10.10;99.90;;;;;;5077022;28;20052;-78
2022/06/22 02:33:55;;;;;;;12.98;9.38;;;10.10;99.90;;;;;;5070307;28;20045;-78
2022/06/22 02:36:24;;;;;;;12.57;8.80;;;10.00;99.90;;;;;;5049129;28;20090;-78
2022/06/22 02:38:52;;;;;;;10.90;9.80;;;9.80;99.90;;;;;;5054978;28;20071;-78
2022/06/22 02:44:30;;;;;;;10.98;9.40;;;9.90;99.90;;;;;;5084186;28;20371;-77
2022/06/22 02:47:18;;;;;;;10.13;9.13;;;10.00;99.90;;;;;;5069085;28;20048;-78
2022/06/22 02:49:50;;;;;;;10.23;8.98;;;10.00;99.90;;;;;;5058744;28;20040;-79
2022/06/22 02:52:17;;;;;;;10.40;8.73;;;10.10;99.90;;;;;;5074516;28;20483;-78
2022/06/22 02:54:51;;;;;;;13.25;8.50;;;10.00;99.90;;;;;;5064687;28;20048;-78
2022/06/22 02:57:37;;;;;;;9.30;8.25;;;10.00;99.90;;;;;;5071776;28;20101;-78
2022/06/22 03:00:05;;;;;;;10.38;8.38;;;10.00;99.90;;;;;;5052516;28;20044;-78
2022/06/22 03:02:31;;;;;;;8.30;7.07;;;10.10;99.90;;;;;;5080213;28;20386;-78
2022/06/22 03:04:58;;;;;;;9.07;8.15;;;9.90;99.90;;;;;;5066386;28;20036;-78
2022/06/22 03:07:25;;;;;;;9.35;7.70;;;9.90;99.90;;;;;;5062630;28;20060;-78
2022/06/22 03:09:52;;;;;;;7.25;6.25;;;10.00;99.90;;;;;;5074550;28;20048;-77
2022/06/22 03:12:18;;;;;;;7.25;6.50;;;9.90;99.90;;;;;;5076080;28;20159;-79
2022/06/22 03:14:49;;;;;;;7.72;6.85;;;9.90;99.90;;;;;;5068458;28;20104;-78
2022/06/22 03:17:18;;;;;;;7.18;6.45;;;9.90;99.90;;;;;;5069201;28;20178;-79
2022/06/22 03:19:50;;;;;;;14.73;6.15;;;9.90;99.90;;;;;;5055745;28;20040;-79
2022/06/22 03:22:29;;;;;;;7.63;5.85;;;9.90;99.90;;;;;;5063697;28;20379;-77
2022/06/22 03:25:17;;;;;;;6.40;5.80;;;9.90;99.90;;;;;;5050127;28;20047;-79
2022/06/22 03:27:46;;;;;;;9.15;7.85;;;9.90;99.90;;;;;;5066742;28;20387;-78
2022/06/22 03:30:19;;;;;;;8.40;6.72;;;9.90;99.90;;;;;;5063201;28;20414;-78
2022/06/22 03:33:10;;;;;;;7.78;6.25;;;9.90;99.90;;;;;;5086616;28;20040;-77
2022/06/22 03:35:53;;;;;;;8.38;6.90;;;9.90;99.90;;;;;;5054678;28;20097;-78
2022/06/22 03:38:24;;;;;;;8.32;7.47;;;9.90;99.90;;;;;;5049693;28;20975;-77
2022/06/22 03:40:57;;;;;;;10.50;7.82;;;9.90;99.90;;;;;;5073373;28;20048;-79
2022/06/22 03:43:39;;;;;;;9.20;6.53;;;9.90;99.90;;;;;;5064990;28;20455;-79
2022/06/22 03:46:13;;;;;;;7.32;6.40;;;9.90;99.90;;;;;;5051841;28;20131;-79
2022/06/22 03:48:46;;;;;;;8.38;6.78;;;9.80;99.90;;;;;;5085325;28;20071;-78
2022/06/22 03:51:22;;;;;;;7.72;6.07;;;9.80;99.90;;;;;;5077761;28;20079;-77
2022/06/22 03:54:02;;;;;;;9.32;7.53;;;9.80;99.90;;;;;;5085274;28;20459;-78
2022/06/22 03:56:38;;;;;;;10.38;7.05;;;9.70;99.90;;;;;;5082690;28;20040;-78
2022/06/22 03:59:05;;;;;;;8.10;6.90;;;9.60;99.90;;;;;;5037711;28;20366;-77
2022/06/22 04:01:31;;;;;;;8.50;7.70;;;9.50;99.90;;;;;;5077168;28;20040;-78
2022/06/22 04:03:57;;;;;;;12.43;9.45;;;9.40;99.90;;;;;;5061742;28;20428;-78
2022/06/22 04:06:34;;;;;;;10.43;8.85;;;9.30;99.90;;;;;;5075850;28;20454;-79
2022/06/22 04:09:02;;;;;;;10.60;9.45;;;9.30;99.90;;;;;;5084288;28;20557;-78
2022/06/22 04:11:37;;;;;;;9.88;8.85;;;9.30;99.90;;;;;;5031630;28;20032;-78
2022/06/22 04:14:12;;;;;;;10.70;8.60;;;9.40;99.90;;;;;;5073865;28;20497;-77
2022/06/22 04:16:40;;;;;;;10.93;9.10;;;10.00;99.90;;;;;;5077922;28;20045;-78
2022/06/22 04:19:15;;;;;;;10.50;7.90;;;10.00;99.90;;;;;;5061854;28;20403;-77
2022/06/22 04:21:46;;;;;;;10.10;8.82;;;9.70;99.90;;;;;;5053955;28;20060;-78
2022/06/22 04:24:14;;;;;;;13.05;8.32;;;9.60;99.90;;;;;;5056490;28;20052;-78
2022/06/22 04:26:48;;;;;;;51.78;11.73;;;9.60;99.90;;;;;;5078325;28;20441;-78
2022/06/22 04:29:35;;;;;;;128.13;14.18;;;9.40;99.90;;;;;;5062220;28;20684;-78
2022/06/22 04:32:27;;;;;;;56.92;11.48;;;9.50;99.90;;;;;;5076023;28;20044;-76
2022/06/22 04:35:03;;;;;;;10.50;9.50;;;9.70;99.90;;;;;;5049054;28;20113;-78
2022/06/22 04:37:44;;;;;;;9.82;8.82;;;9.90;99.90;;;;;;5073943;28;20144;-78
2022/06/22 04:40:17;;;;;;;9.70;8.80;;;10.60;99.90;;;;;;5073939;28;20080;-78
2022/06/22 04:42:43;;;;;;;9.52;8.63;;;10.40;99.90;;;;;;5069657;28;20025;-77
2022/06/22 04:45:30;;;;;;;9.35;8.45;;;10.40;99.90;;;;;;5081659;28;20066;-77
2022/06/22 04:48:02;;;;;;;11.35;9.48;;;10.60;99.90;;;;;;5076163;28;20127;-77
2022/06/22 04:50:28;;;;;;;11.13;9.10;;;11.00;99.90;;;;;;5063804;28;20056;-77
2022/06/22 04:52:55;;;;;;;11.35;10.25;;;11.40;99.90;;;;;;5084029;28;20409;-78
2022/06/22 04:55:25;;;;;;;14.13;11.50;;;11.20;99.90;;;;;;5066022;28;20036;-78
2022/06/22 04:58:00;;;;;;;11.05;9.93;;;11.30;99.90;;;;;;5069164;28;20040;-78
2022/06/22 05:00:30;;;;;;;12.95;11.63;;;11.30;99.90;;;;;;5077950;28;20111;-75
2022/06/22 05:03:12;;;;;;;14.82;13.30;;;11.50;99.90;;;;;;5055647;28;20041;-76
2022/06/22 05:05:38;;;;;;;16.85;12.02;;;11.70;99.90;;;;;;5054895;28;20082;-76
2022/06/22 05:08:10;;;;;;;13.07;11.20;;;11.80;99.90;;;;;;5068794;28;20051;-76
2022/06/22 05:10:57;;;;;;;17.20;12.73;;;11.90;99.90;;;;;;5066621;28;20051;-77
2022/06/22 05:13:42;;;;;;;21.23;13.98;;;12.00;99.90;;;;;;5064098;28;20051;-79
2022/06/22 05:16:14;;;;;;;15.38;13.77;;;12.10;99.90;;;;;;5028446;28;20045;-77
2022/06/22 05:18:42;;;;;;;17.95;13.85;;;12.20;99.90;;;;;;5063160;28;20048;-78
2022/06/22 05:21:18;;;;;;;16.67;15.00;;;12.20;99.90;;;;;;5051699;28;20037;-77
2022/06/22 05:23:49;;;;;;;15.32;13.65;;;12.50;99.90;;;;;;5059836;28;20083;-76
2022/06/22 05:26:18;;;;;;;18.63;15.27;;;12.50;99.90;;;;;;5069597;28;20499;-78
2022/06/22 05:28:48;;;;;;;20.83;15.82;;;12.70;99.90;;;;;;5050608;28;20111;-78
2022/06/22 05:31:21;;;;;;;17.25;14.45;;;12.70;99.90;;;;;;5046369;28;20051;-78
2022/06/22 05:33:51;;;;;;;16.92;15.13;;;12.90;99.90;;;;;;5057899;28;20043;-77
2022/06/22 05:36:22;;;;;;;22.65;16.45;;;13.00;99.90;;;;;;5086217;28;20044;-77
2022/06/22 05:38:52;;;;;;;23.70;16.45;;;13.00;99.90;;;;;;5085623;28;20393;-78
2022/06/22 05:41:25;;;;;;;16.15;14.45;;;13.10;99.90;;;;;;5043968;28;20384;-77
2022/06/22 05:43:51;;;;;;;21.15;16.75;;;13.40;99.90;;;;;;5043137;28;20048;-77
2022/06/22 05:46:16;;;;;;;19.48;15.23;;;13.40;99.90;;;;;;5060339;28;20078;-77
2022/06/22 05:48:45;;;;;;;42.47;16.58;;;13.50;99.90;;;;;;5070868;28;20060;-77
2022/06/22 05:51:13;;;;;;;20.50;16.20;;;13.50;99.90;;;;;;5061035;28;20094;-77
2022/06/22 05:53:55;;;;;;;20.75;15.55;;;13.50;99.90;;;;;;5074486;28;20066;-77
2022/06/22 05:56:39;;;;;;;15.68;13.32;;;13.70;99.90;;;;;;5050338;28;20280;-77
2022/06/22 05:59:39;;;;;;;23.52;15.77;;;13.70;99.90;;;;;;5084240;28;20036;-77
2022/06/22 06:02:15;;;;;;;20.23;14.07;;;13.80;99.90;;;;;;5043501;28;20726;-77
2022/06/22 06:04:48;;;;;;;17.60;14.35;;;13.90;99.90;;;;;;5023981;28;20044;-77
2022/06/22 06:07:45;;;;;;;20.88;13.68;;;14.00;99.90;;;;;;5027990;28;20045;-77
2022/06/22 06:10:20;;;;;;;15.93;11.32;;;14.00;99.90;;;;;;5028007;28;20045;-77
2022/06/22 06:13:12;;;;;;;17.23;13.32;;;14.20;99.90;;;;;;5046011;28;20035;-87
2022/06/22 06:15:39;;;;;;;13.45;10.98;;;14.30;99.90;;;;;;5049184;28;20146;-77
2022/06/22 06:18:09;;;;;;;12.95;10.30;;;14.30;99.90;;;;;;5066094;28;20036;-78
2022/06/22 06:20:40;;;;;;;12.90;10.90;;;14.40;99.90;;;;;;5053661;28;20039;-78
2022/06/22 06:23:13;;;;;;;20.67;12.00;;;14.50;99.90;;;;;;5084152;28;20660;-80
2022/06/22 06:28:56;;;;;;;16.65;10.43;;;14.60;99.90;;;;;;5066074;28;20064;-75
2022/06/22 06:31:29;;;;;;;18.20;10.73;;;14.60;99.90;;;;;;5045817;28;20037;-77
2022/06/22 06:33:56;;;;;;;16.23;9.32;;;14.80;99.90;;;;;;5061368;28;20063;-77
2022/06/22 06:36:45;;;;;;;16.92;11.60;;;14.80;99.90;;;;;;5068277;28;20036;-78
2022/06/22 06:39:18;;;;;;;13.75;10.50;;;14.90;99.90;;;;;;5049093;28;20073;-78
2022/06/22 06:42:03;;;;;;;17.65;10.07;;;15.00;99.90;;;;;;5080041;28;20490;-78
2022/06/22 06:44:36;;;;;;;9.30;8.15;;;15.10;99.90;;;;;;5050922;28;20085;-76
2022/06/22 06:47:06;;;;;;;10.18;9.18;;;15.10;99.90;;;;;;5060452;28;20043;-77
2022/06/22 06:49:39;;;;;;;13.80;8.38;;;15.20;99.90;;;;;;5082313;28;20052;-76
2022/06/22 06:52:13;;;;;;;13.02;9.68;;;15.40;99.90;;;;;;5041606;28;20090;-76
2022/06/22 06:54:54;;;;;;;11.35;8.55;;;15.90;99.90;;;;;;5067264;28;20101;-76
2022/06/22 06:57:22;;;;;;;14.05;9.95;;;15.90;99.90;;;;;;5076207;28;20052;-77
2022/06/22 06:59:53;;;;;;;12.25;8.13;;;15.70;99.90;;;;;;5067751;28;20079;-75
2022/06/22 07:02:36;;;;;;;9.90;8.02;;;17.00;99.90;;;;;;5049282;28;20044;-75
2022/06/22 07:05:07;;;;;;;11.57;6.68;;;17.40;99.90;;;;;;5058674;28;20051;-77
2022/06/22 07:07:42;;;;;;;8.25;6.00;;;17.80;99.90;;;;;;5074794;28;20055;-78
2022/06/22 07:10:17;;;;;;;11.88;7.43;;;18.30;99.90;;;;;;5085431;28;20040;-77
2022/06/22 07:12:52;;;;;;;8.95;6.47;;;19.20;99.90;;;;;;5067204;28;20529;-77
2022/06/22 07:15:26;;;;;;;15.82;7.80;;;19.80;99.90;;;;;;5083367;28;20079;-78
2022/06/22 07:17:54;;;;;;;11.50;6.57;;;19.50;99.90;;;;;;5087924;28;20079;-78
2022/06/22 07:20:22;;;;;;;11.90;5.90;;;19.40;99.90;;;;;;5087843;28;20161;-78
2022/06/22 07:23:01;;;;;;;10.93;7.00;;;20.40;99.90;;;;;;5088975;28;20040;-78
2022/06/22 07:25:36;;;;;;;12.95;5.72;;;21.10;99.90;;;;;;5082842;28;20043;-77
2022/06/22 07:28:23;;;;;;;8.55;5.47;;;21.30;99.90;;;;;;5070016;28;20036;-78
2022/06/22 07:31:00;;;;;;;11.35;4.78;;;20.80;99.90;;;;;;5071915;28;20421;-83
2022/06/22 07:33:32;;;;;;;9.43;4.13;;;21.10;99.90;;;;;;5051192;28;20040;-77
2022/06/22 07:36:04;;;;;;;12.52;4.68;;;21.50;99.90;;;;;;5073945;28;20048;-79
2022/06/22 07:38:38;;;;;;;8.32;4.50;;;21.10;99.90;;;;;;5086803;28;20113;-79
2022/06/22 07:41:19;;;;;;;15.10;6.57;;;21.30;99.90;;;;;;5083322;28;20089;-79
2022/06/22 07:43:47;;;;;;;11.30;5.85;;;22.10;99.90;;;;;;5068306;28;20178;-79
2022/06/22 07:46:23;;;;;;;7.70;4.43;;;22.80;99.90;;;;;;5056324;28;20121;-80
2022/06/22 07:48:54;;;;;;;6.22;4.35;;;23.30;99.90;;;;;;5068426;28;20067;-76
2022/06/22 07:51:26;;;;;;;12.23;4.70;;;22.80;99.90;;;;;;5067475;28;20045;-79
2022/06/22 07:54:04;;;;;;;7.70;3.97;;;21.70;99.90;;;;;;5068235;28;20048;-78
2022/06/22 07:57:18;;;;;;;12.82;4.88;;;20.70;99.90;;;;;;5067008;28;20044;-77
2022/06/22 07:59:53;;;;;;;9.45;4.60;;;20.60;99.90;;;;;;5037078;28;20044;-76
2022/06/22 08:02:23;;;;;;;9.73;4.43;;;20.20;99.90;;;;;;5049207;28;20120;-77
2022/06/22 08:04:53;;;;;;;;;;;20.30;99.90;;;;;;5078461;28;20060;-76
2022/06/22 08:07:24;;;;;;;14.20;5.72;;;20.10;99.90;;;;;;5064935;28;20453;-74
2022/06/22 08:10:08;;;;;;;7.80;4.53;;;20.00;99.90;;;;;;5073669;28;20406;-74
2022/06/22 08:12:44;;;;;;;11.43;4.75;;;19.60;99.90;;;;;;5085429;28;20089;-75
2022/06/22 08:15:16;;;;;;;9.13;4.45;;;19.50;99.90;;;;;;5073308;28;20485;-76
2022/06/22 08:17:53;;;;;;;8.57;3.92;;;19.10;99.90;;;;;;5066715;28;20056;-75
2022/06/22 08:20:29;;;;;;;15.32;4.65;;;19.10;99.90;;;;;;5048752;28;20440;-76
2022/06/22 08:22:57;;;;;;;9.05;3.40;;;19.60;99.90;;;;;;5056515;28;20085;-75
2022/06/22 08:25:23;;;;;;;12.52;3.20;;;19.30;99.90;;;;;;5040733;28;20515;-75
2022/06/22 08:27:50;;;;;;;9.48;3.22;;;19.70;99.90;;;;;;5083915;28;20500;-74
2022/06/22 08:30:17;;;;;;;6.60;2.67;;;19.90;99.90;;;;;;5060515;28;20052;-76
2022/06/22 08:32:51;;;;;;;7.88;2.83;;;19.80;99.90;;;;;;5049405;28;20048;-76
2022/06/22 08:35:22;;;;;;;10.48;3.35;;;19.90;99.90;;;;;;5075096;28;20040;-75
2022/06/22 08:37:55;;;;;;;7.85;3.80;;;19.80;99.90;;;;;;5083857;28;20068;-76
2022/06/22 08:40:49;;;;;;;11.13;4.75;;;19.50;99.90;;;;;;5081565;28;20135;-75
2022/06/22 08:43:38;;;;;;;8.55;2.92;;;19.90;99.90;;;;;;5082496;28;20059;-79
2022/06/22 08:46:25;;;;;;;6.82;2.45;;;19.80;99.90;;;;;;5062964;28;20047;-78
2022/06/22 08:49:09;;;;;;;8.80;2.72;;;19.70;99.90;;;;;;5038827;28;20519;-75
2022/06/22 08:51:37;;;;;;;7.35;2.50;;;19.90;99.90;;;;;;5048411;28;21112;-76
2022/06/22 08:54:29;;;;;;;6.80;3.33;;;19.90;99.90;;;;;;5060375;28;20397;-77
2022/06/22 08:57:21;;;;;;;7.55;3.63;;;20.10;99.90;;;;;;5068544;28;20047;-75
2022/06/22 09:00:19;;;;;;;7.10;3.40;;;20.40;99.90;;;;;;5073475;28;20190;-76
2022/06/22 09:03:25;;;;;;;8.65;4.15;;;20.10;99.90;;;;;;5061702;28;20041;-77
2022/06/22 09:06:23;;;;;;;11.73;3.97;;;20.00;99.90;;;;;;5071136;28;20420;-75
2022/06/22 09:09:07;;;;;;;11.75;3.30;;;20.20;99.90;;;;;;5048938;28;20500;-76
2022/06/22 09:12:05;;;;;;;7.88;2.90;;;19.90;99.90;;;;;;5030469;28;20045;-76
2022/06/22 09:14:40;;;;;;;5.72;3.05;;;20.40;99.90;;;;;;5077746;28;20033;-77
2022/06/22 09:17:11;;;;;;;9.27;3.10;;;20.00;99.90;;;;;;5046493;28;20052;-75
2022/06/22 09:19:54;;;;;;;9.68;4.00;;;19.80;99.90;;;;;;5041642;28;20072;-80
2022/06/22 09:22:29;;;;;;;9.82;3.00;;;20.30;99.90;;;;;;5054735;28;20056;-77
2022/06/22 09:25:21;;;;;;;8.50;3.40;;;20.40;99.90;;;;;;5061237;28;20040;-76
2022/06/22 09:28:15;;;;;;;8.82;3.25;;;20.40;99.90;;;;;;5090893;28;20059;-77
2022/06/22 09:31:08;;;;;;;11.15;3.05;;;20.20;99.90;;;;;;5069594;28;20044;-76
2022/06/22 09:33:59;;;;;;;6.57;3.17;;;20.30;99.90;;;;;;5052146;28;20044;-76
2022/06/22 09:37:03;;;;;;;7.78;4.10;;;20.40;99.90;;;;;;5044596;28;20044;-75
2022/06/22 09:39:50;;;;;;;8.52;3.13;;;20.10;99.90;;;;;;5067514;28;20572;-79
2022/06/22 09:42:43;;;;;;;4.13;2.78;;;20.80;99.90;;;;;;5085827;28;20523;-76
2022/06/22 09:45:43;;;;;;;7.25;3.20;;;20.70;99.90;;;;;;5046151;28;20385;-76
2022/06/22 09:48:17;;;;;;;7.32;3.45;;;20.80;99.90;;;;;;4978916;28;20136;-76
2022/06/22 09:51:01;;;;;;;8.52;3.50;;;20.50;99.90;;;;;;5035523;28;20041;-75
2022/06/22 09:53:45;;;;;;;5.93;3.33;;;20.80;99.90;;;;;;5063639;28;20034;-76
2022/06/22 09:56:19;;;;;;;9.50;3.72;;;21.00;99.90;;;;;;5040164;28;20044;-76
2022/06/22 09:59:35;;;;;;;6.32;3.65;;;21.20;99.90;;;;;;5045555;28;20394;-76
2022/06/22 10:02:33;;;;;;;5.97;3.10;;;20.90;99.90;;;;;;5028080;28;20053;-75
2022/06/22 10:05:42;;;;;;;5.88;2.92;;;20.90;99.90;;;;;;5044937;28;20127;-75
2022/06/22 10:08:44;;;;;;;5.38;3.15;;;21.10;99.90;;;;;;5050305;28;20589;-75
2022/06/22 10:11:37;;;;;;;8.48;3.25;;;21.30;99.90;;;;;;5065028;28;20056;-74
2022/06/22 10:14:09;;;;;;;6.75;3.55;;;21.50;99.90;;;;;;5064745;28;20040;-75
2022/06/22 10:16:45;;;;;;;7.22;2.97;;;20.70;99.90;;;;;;5059543;28;20041;-76
2022/06/22 10:19:38;;;;;;;6.38;2.58;;;21.20;99.90;;;;;;5063394;28;20407;-75
2022/06/22 10:22:40;;;;;;;6.20;2.92;;;20.90;99.90;;;;;;5042714;28;20056;-75
2022/06/22 10:25:25;;;;;;;7.03;3.53;;;21.20;99.90;;;;;;5047130;28;20052;-75
2022/06/22 10:28:26;;;;;;;8.40;3.28;;;21.00;99.90;;;;;;5048206;28;20044;-75
2022/06/22 10:31:10;;;;;;;9.95;3.05;;;21.10;99.90;;;;;;5068581;28;20455;-77
2022/06/22 10:33:45;;;;;;;7.50;3.20;;;21.60;99.90;;;;;;5083971;28;20036;-76
2022/06/22 10:36:37;;;;;;;4.57;2.13;;;21.20;99.90;;;;;;5073281;28;20040;-76
2022/06/22 10:39:26;;;;;;;9.13;3.38;;;21.20;99.90;;;;;;5069079;28;20047;-76
2022/06/22 10:45:15;;;;;;;9.52;3.85;;;21.10;99.90;;;;;;5061735;28;20044;-76
2022/06/22 10:48:15;;;;;;;7.38;3.55;;;21.40;99.90;;;;;;5070480;28;20052;-74
2022/06/22 10:50:49;;;;;;;;;;;21.30;99.90;;;;;;5063166;28;20509;-75
2022/06/22 10:53:40;;;;;;;5.60;2.80;;;21.40;99.90;;;;;;5062543;28;19916;-75
2022/06/22 10:56:31;;;;;;;9.18;4.20;;;21.70;99.90;;;;;;5038700;28;20043;-74
2022/06/22 10:59:21;;;;;;;5.60;3.63;;;21.70;99.90;;;;;;5070208;28;20081;-75
2022/06/22 11:01:55;;;;;;;;;;;21.70;99.90;;;;;;5087396;28;20032;-75
2022/06/22 11:04:59;;;;;;;5.93;3.05;;;21.50;99.90;;;;;;5070334;28;19924;-75
2022/06/22 11:07:36;;;;;;;6.38;2.85;;;21.50;99.90;;;;;;5067210;28;20049;-74
2022/06/22 11:10:20;;;;;;;6.93;3.97;;;21.80;99.90;;;;;;5050631;28;20050;-75
2022/06/22 11:13:11;;;;;;;7.47;4.05;;;22.00;99.90;;;;;;5030572;28;20037;-74
2022/06/22 11:16:09;;;;;;;5.40;2.90;;;22.10;99.90;;;;;;5048191;28;20048;-75
2022/06/22 11:19:12;;;;;;;10.68;4.07;;;22.00;99.90;;;;;;5048468;28;20045;-75
2022/06/22 11:21:45;;;;;;;7.70;3.40;;;21.60;99.90;;;;;;5065927;28;20721;-74
2022/06/22 11:24:29;;;;;;;6.00;2.60;;;21.80;99.90;;;;;;5067022;28;20082;-75
2022/06/22 11:30:49;;;;;;;8.63;3.42;;;22.00;99.90;;;;;;5086958;28;20051;-75
2022/06/22 11:33:36;;;;;;;8.30;3.88;;;22.20;99.90;;;;;;5048028;28;20408;-75
2022/06/22 11:36:18;;;;;;;6.65;3.60;;;22.00;99.90;;;;;;5014497;28;20119;-74
2022/06/22 11:39:17;;;;;;;7.07;3.28;;;21.90;99.90;;;;;;5049492;28;20059;-82
2022/06/22 11:41:59;;;;;;;7.30;3.67;;;22.30;99.90;;;;;;5043521;28;20051;-75
2022/06/22 11:45:49;;;;;;;8.50;2.90;;;22.30;99.90;;;;;;5087332;28;20040;-75
2022/06/22 11:47:50;;;;;;;6.38;3.28;;;22.40;99.90;;;;;;5068389;28;20056;-75
2022/06/22 11:50:36;;;;;;;7.88;3.88;;;22.20;99.90;;;;;;5068880;28;20052;-76
2022/06/22 11:53:27;;;;;;;7.95;3.53;;;22.30;99.90;;;;;;5048477;28;20041;-75
2022/06/22 11:55:58;;;;;;;6.63;4.13;;;22.10;99.90;;;;;;5073659;28;20035;-75
2022/06/22 11:58:42;;;;;;;5.32;2.20;;;22.50;99.90;;;;;;5087561;28;20040;-76
2022/06/22 12:01:16;;;;;;;9.38;3.38;;;21.90;99.90;;;;;;5068176;28;20055;-75
2022/06/22 12:03:59;;;;;;;4.90;2.65;;;22.00;99.90;;;;;;5086702;28;20406;-76
2022/06/22 12:06:36;;;;;;;6.57;2.97;;;22.20;99.90;;;;;;5054776;28;20076;-75
2022/06/22 12:09:24;;;;;;;7.05;3.28;;;22.60;99.90;;;;;;5073997;28;20043;-75
2022/06/22 12:12:28;;;;;;;7.15;2.83;;;22.70;99.90;;;;;;5069077;28;20570;-76
2022/06/22 12:15:18;;;;;;;7.53;3.17;;;22.70;99.90;;;;;;5072388;28;20056;-76
2022/06/22 12:18:06;;;;;;;9.38;3.70;;;23.20;99.90;;;;;;5047585;28;20056;-76
2022/06/22 12:21:26;;;;;;;8.18;3.47;;;22.70;99.90;;;;;;5033644;28;20044;-76
2022/06/22 12:24:07;;;;;;;7.28;2.80;;;22.60;99.90;;;;;;4983545;28;20046;-75
2022/06/22 12:26:47;;;;;;;5.55;3.25;;;22.60;99.90;;;;;;5058863;28;20057;-76
2022/06/22 12:29:13;;;;;;;7.05;3.95;;;22.80;99.90;;;;;;5049296;28;20056;-75
2022/06/22 12:31:50;;;;;;;10.80;3.88;;;22.40;99.90;;;;;;5049300;28;20044;-75
2022/06/22 12:34:38;;;;;;;5.35;3.33;;;22.50;99.90;;;;;;5073881;28;20105;-75
2022/06/22 12:37:19;;;;;;;7.53;3.67;;;22.40;99.90;;;;;;5086679;28;20043;-75
2022/06/22 12:40:08;;;;;;;7.47;3.38;;;22.60;99.90;;;;;;5049796;28;20037;-75
2022/06/22 12:42:41;;;;;;;9.60;4.38;;;22.50;99.90;;;;;;5048244;28;20052;-75
2022/06/22 12:45:25;;;;;;;11.80;4.07;;;22.80;99.90;;;;;;5060916;28;20080;-74
2022/06/22 12:48:05;;;;;;;13.13;5.03;;;22.70;99.90;;;;;;5067392;28;20376;-74
2022/06/22 12:50:57;;;;;;;8.77;4.82;;;22.90;99.90;;;;;;5063659;28;20060;-76
2022/06/22 12:53:48;;;;;;;8.38;4.38;;;22.50;99.90;;;;;;5040285;28;20064;-74
2022/06/22 12:56:26;;;;;;;7.47;4.00;;;22.90;99.90;;;;;;5087009;28;20044;-74
2022/06/22 12:59:08;;;;;;;11.65;4.90;;;22.70;99.90;;;;;;5086008;28;20173;-74
2022/06/22 13:01:35;;;;;;;6.75;4.38;;;23.00;99.90;;;;;;5068291;28;20107;-75
2022/06/22 13:04:06;;;;;;;11.68;6.07;;;22.80;99.90;;;;;;5081515;28;20051;-75
2022/06/22 13:06:34;;;;;;;8.05;3.75;;;22.80;99.90;;;;;;5043721;28;20040;-75
2022/06/22 13:09:01;;;;;;;8.38;3.85;;;23.00;99.90;;;;;;5050088;28;20428;-74
2022/06/22 13:11:29;;;;;;;9.43;4.68;;;22.80;99.90;;;;;;5065697;28;20045;-75
2022/06/22 13:14:04;;;;;;;13.75;5.30;;;22.90;99.90;;;;;;5045361;28;20064;-74
2022/06/22 13:16:55;;;;;;;8.07;4.30;;;22.90;99.90;;;;;;5045881;28;20128;-74
2022/06/22 13:19:35;;;;;;;9.32;4.88;;;22.80;99.90;;;;;;5054515;28;20383;-74
2022/06/22 13:22:17;;;;;;;8.70;4.45;;;22.90;99.90;;;;;;5063545;28;20072;-75
2022/06/22 13:25:01;;;;;;;7.22;3.95;;;22.60;99.90;;;;;;5064863;28;20078;-76
2022/06/22 13:27:48;;;;;;;7.13;4.45;;;22.70;99.90;;;;;;5064880;28;20400;-75
2022/06/22 13:30:29;;;;;;;8.18;5.00;;;22.40;99.90;;;;;;5028101;28;20045;-75
2022/06/22 13:33:02;;;;;;;9.13;4.03;;;22.60;99.90;;;;;;5036774;28;20047;-74
2022/06/22 13:35:56;;;;;;;8.15;4.00;;;22.80;99.90;;;;;;5082857;28;20481;-76
2022/06/22 13:38:28;;;;;;;7.70;5.38;;;23.20;99.90;;;;;;5068656;28;20354;-75
2022/06/22 13:41:12;;;;;;;8.50;5.22;;;23.00;99.90;;;;;;5065373;28;20045;-75
2022/06/22 13:44:21;;;;;;;10.32;3.80;;;23.00;99.90;;;;;;5071072;28;20037;-76
2022/06/22 13:46:53;;;;;;;9.02;5.03;;;23.00;99.90;;;;;;5055443;28;20044;-75
2022/06/22 13:49:50;;;;;;;6.28;3.75;;;22.90;99.90;;;;;;5045566;28;20088;-75
2022/06/22 13:52:40;;;;;;;8.35;3.97;;;23.10;99.90;;;;;;5047592;28;20084;-76
2022/06/22 13:55:23;;;;;;;12.47;5.07;;;23.30;99.90;;;;;;5048913;28;20356;-76